sensor_id;sensor_type;location;lat;lon;timestamp;P1;durP1;ratioP1;P2;durP2;ratioP2
74204;SDS011;62564;52.678;4.900;2023-06-22T00:01:21;4.75;;;3.65;;
74204;SDS011;62564;52.678;4.900;2023-06-22T00:03:47;5.97;;;4.05;;
74204;SDS011;62564;52.678;4.900;2023-06-22T00:06:12;4.60;;;2.97;;
74204;SDS011;62564;52.678;4.900;2023-06-22T00:08:38;5.00;;;3.25;;
74204;SDS011;62564;52.678;4.900;2023-06-22T00:11:03;5.65;;;3.40;;
74204;SDS011;62564;52.678;4.900;2023-06-22T00:13:28;5.30;;;3.75;;
74204;SDS011;62564;52.678;4.900;2023-06-22T00:15:54;6.87;;;3.53;;
74204;SDS011;62564;52.678;4.900;2023-06-22T00:18:19;4.60;;;3.43;;
74204;SDS011;62564;52.678;4.900;2023-06-22T00:20:45;6.65;;;4.53;;
74204;SDS011;62564;52.678;4.900;2023-06-22T00:23:10;5.03;;;4.28;;
74204;SDS011;62564;52.678;4.900;2023-06-22T00:25:36;5.70;;;3.75;;
74204;SDS011;62564;52.678;4.900;2023-06-22T00:28:03;5.30;;;3.35;;
74204;SDS011;62564;52.678;4.900;2023-06-22T00:30:29;5.70;;;4.50;;
74204;SDS011;62564;52.678;4.900;2023-06-22T00:32:55;5.85;;;3.90;;
74204;SDS011;62564;52.678;4.900;2023-06-22T00:35:20;6.10;;;3.67;;
74204;SDS011;62564;52.678;4.900;2023-06-22T00:37:46;5.43;;;3.88;;
74204;SDS011;62564;52.678;4.900;2023-06-22T00:40:11;5.47;;;3.80;;
74204;SDS011;62564;52.678;4.900;2023-06-22T00:42:40;5.85;;;4.72;;
74204;SDS011;62564;52.678;4.900;2023-06-22T00:45:06;5.57;;;4.45;;
74204;SDS011;62564;52.678;4.900;2023-06-22T00:47:31;5.88;;;4.47;;
74204;SDS011;62564;52.678;4.900;2023-06-22T00:49:58;6.25;;;4.13;;
74204;SDS011;62564;52.678;4.900;2023-06-22T00:52:25;7.78;;;4.85;;
74204;SDS011;62564;52.678;4.900;2023-06-22T00:54:56;5.20;;;3.75;;
74204;SDS011;62564;52.678;4.900;2023-06-22T00:57:22;6.90;;;4.93;;
74204;SDS011;62564;52.678;4.900;2023-06-22T00:59:52;6.63;;;4.75;;
74204;SDS011;62564;52.678;4.900;2023-06-22T01:02:18;6.10;;;4.43;;
74204;SDS011;62564;52.678;4.900;2023-06-22T01:04:43;5.43;;;4.60;;
74204;SDS011;62564;52.678;4.900;2023-06-22T01:10:02;6.03;;;4.45;;
74204;SDS011;62564;52.678;4.900;2023-06-22T01:12:38;6.40;;;5.18;;
74204;SDS011;62564;52.678;4.900;2023-06-22T01:15:08;7.00;;;5.30;;
74204;SDS011;62564;52.678;4.900;2023-06-22T01:17:36;7.15;;;4.53;;
74204;SDS011;62564;52.678;4.900;2023-06-22T01:20:01;6.90;;;4.80;;
74204;SDS011;62564;52.678;4.900;2023-06-22T01:22:30;7.20;;;5.13;;
74204;SDS011;62564;52.678;4.900;2023-06-22T01:27:48;6.70;;;4.93;;
74204;SDS011;62564;52.678;4.900;2023-06-22T01:30:18;6.18;;;4.20;;
74204;SDS011;62564;52.678;4.900;2023-06-22T01:32:44;6.22;;;4.25;;
74204;SDS011;62564;52.678;4.900;2023-06-22T01:35:09;6.28;;;4.25;;
74204;SDS011;62564;52.678;4.900;2023-06-22T01:37:36;6.65;;;4.72;;
74204;SDS011;62564;52.678;4.900;2023-06-22T01:40:02;5.63;;;4.18;;
74204;SDS011;62564;52.678;4.900;2023-06-22T01:42:30;5.10;;;4.18;;
74204;SDS011;62564;52.678;4.900;2023-06-22T01:44:56;5.88;;;4.03;;
74204;SDS011;62564;52.678;4.900;2023-06-22T01:47:22;6.22;;;4.45;;
74204;SDS011;62564;52.678;4.900;2023-06-22T01:49:48;5.82;;;4.10;;
74204;SDS011;62564;52.678;4.900;2023-06-22T01:52:13;5.97;;;4.13;;
74204;SDS011;62564;52.678;4.900;2023-06-22T01:54:39;5.93;;;4.68;;
74204;SDS011;62564;52.678;4.900;2023-06-22T01:57:05;6.63;;;4.75;;
74204;SDS011;62564;52.678;4.900;2023-06-22T01:59:34;6.30;;;4.45;;
74204;SDS011;62564;52.678;4.900;2023-06-22T02:02:06;5.68;;;4.20;;
74204;SDS011;62564;52.678;4.900;2023-06-22T02:04:35;7.38;;;4.75;;
74204;SDS011;62564;52.678;4.900;2023-06-22T02:07:22;6.65;;;4.80;;
74204;SDS011;62564;52.678;4.900;2023-06-22T02:09:48;4.88;;;3.97;;
74204;SDS011;62564;52.678;4.900;2023-06-22T02:12:17;4.72;;;3.58;;
74204;SDS011;62564;52.678;4.900;2023-06-22T02:14:44;6.95;;;4.57;;
74204;SDS011;62564;52.678;4.900;2023-06-22T02:17:12;8.85;;;3.90;;
74204;SDS011;62564;52.678;4.900;2023-06-22T02:19:38;6.70;;;4.78;;
74204;SDS011;62564;52.678;4.900;2023-06-22T02:22:05;8.10;;;4.35;;
74204;SDS011;62564;52.678;4.900;2023-06-22T02:24:31;5.47;;;4.20;;
74204;SDS011;62564;52.678;4.900;2023-06-22T02:26:58;6.10;;;4.50;;
74204;SDS011;62564;52.678;4.900;2023-06-22T02:29:24;7.53;;;5.43;;
74204;SDS011;62564;52.678;4.900;2023-06-22T02:31:49;6.25;;;4.40;;
74204;SDS011;62564;52.678;4.900;2023-06-22T02:34:15;5.27;;;4.00;;
74204;SDS011;62564;52.678;4.900;2023-06-22T02:36:44;6.97;;;5.18;;
74204;SDS011;62564;52.678;4.900;2023-06-22T02:39:23;5.57;;;3.60;;
74204;SDS011;62564;52.678;4.900;2023-06-22T02:41:49;4.63;;;3.53;;
74204;SDS011;62564;52.678;4.900;2023-06-22T02:44:15;5.93;;;3.97;;
74204;SDS011;62564;52.678;4.900;2023-06-22T02:46:41;5.72;;;4.15;;
74204;SDS011;62564;52.678;4.900;2023-06-22T02:49:06;6.28;;;3.95;;
74204;SDS011;62564;52.678;4.900;2023-06-22T02:51:33;5.80;;;4.43;;
74204;SDS011;62564;52.678;4.900;2023-06-22T02:53:59;6.38;;;4.60;;
74204;SDS011;62564;52.678;4.900;2023-06-22T02:56:24;6.18;;;4.88;;
74204;SDS011;62564;52.678;4.900;2023-06-22T02:58:49;7.47;;;5.23;;
74204;SDS011;62564;52.678;4.900;2023-06-22T03:01:15;6.85;;;4.90;;
74204;SDS011;62564;52.678;4.900;2023-06-22T03:03:40;6.97;;;5.07;;
74204;SDS011;62564;52.678;4.900;2023-06-22T03:06:08;7.18;;;4.95;;
74204;SDS011;62564;52.678;4.900;2023-06-22T03:08:38;7.18;;;5.35;;
74204;SDS011;62564;52.678;4.900;2023-06-22T03:11:04;7.17;;;5.13;;
74204;SDS011;62564;52.678;4.900;2023-06-22T03:13:29;7.67;;;6.00;;
74204;SDS011;62564;52.678;4.900;2023-06-22T03:15:54;7.53;;;5.90;;
74204;SDS011;62564;52.678;4.900;2023-06-22T03:18:20;8.90;;;5.68;;
74204;SDS011;62564;52.678;4.900;2023-06-22T03:20:47;7.97;;;5.82;;
74204;SDS011;62564;52.678;4.900;2023-06-22T03:23:12;8.27;;;6.30;;
74204;SDS011;62564;52.678;4.900;2023-06-22T03:25:38;9.13;;;7.23;;
74204;SDS011;62564;52.678;4.900;2023-06-22T03:28:03;9.07;;;6.25;;
74204;SDS011;62564;52.678;4.900;2023-06-22T03:30:28;9.05;;;6.93;;
74204;SDS011;62564;52.678;4.900;2023-06-22T03:32:54;9.53;;;6.77;;
74204;SDS011;62564;52.678;4.900;2023-06-22T03:35:19;8.45;;;6.63;;
74204;SDS011;62564;52.678;4.900;2023-06-22T03:37:44;8.67;;;6.73;;
74204;SDS011;62564;52.678;4.900;2023-06-22T03:40:10;8.90;;;6.73;;
74204;SDS011;62564;52.678;4.900;2023-06-22T03:42:35;10.07;;;7.35;;
74204;SDS011;62564;52.678;4.900;2023-06-22T03:45:01;8.93;;;7.05;;
74204;SDS011;62564;52.678;4.900;2023-06-22T03:47:28;8.48;;;6.38;;
74204;SDS011;62564;52.678;4.900;2023-06-22T03:49:53;10.50;;;7.07;;
74204;SDS011;62564;52.678;4.900;2023-06-22T03:52:20;9.18;;;6.45;;
74204;SDS011;62564;52.678;4.900;2023-06-22T03:54:45;8.82;;;5.95;;
74204;SDS011;62564;52.678;4.900;2023-06-22T03:57:11;7.43;;;5.90;;
74204;SDS011;62564;52.678;4.900;2023-06-22T03:59:36;8.00;;;5.67;;
74204;SDS011;62564;52.678;4.900;2023-06-22T04:02:01;7.55;;;5.07;;
74204;SDS011;62564;52.678;4.900;2023-06-22T04:04:27;7.82;;;5.65;;
74204;SDS011;62564;52.678;4.900;2023-06-22T04:06:52;8.30;;;6.03;;
74204;SDS011;62564;52.678;4.900;2023-06-22T04:09:18;8.55;;;7.13;;
74204;SDS011;62564;52.678;4.900;2023-06-22T04:11:43;9.73;;;6.67;;
74204;SDS011;62564;52.678;4.900;2023-06-22T04:14:08;10.10;;;6.77;;
74204;SDS011;62564;52.678;4.900;2023-06-22T04:16:34;10.87;;;6.50;;
74204;SDS011;62564;52.678;4.900;2023-06-22T04:18:59;8.38;;;6.60;;
74204;SDS011;62564;52.678;4.900;2023-06-22T04:21:24;8.93;;;6.10;;
74204;SDS011;62564;52.678;4.900;2023-06-22T04:23:50;9.27;;;6.47;;
74204;SDS011;62564;52.678;4.900;2023-06-22T04:26:15;7.97;;;5.70;;
74204;SDS011;62564;52.678;4.900;2023-06-22T04:28:41;8.73;;;5.93;;
74204;SDS011;62564;52.678;4.900;2023-06-22T04:31:06;8.60;;;5.53;;
74204;SDS011;62564;52.678;4.900;2023-06-22T04:33:31;8.68;;;6.50;;
74204;SDS011;62564;52.678;4.900;2023-06-22T04:35:57;8.70;;;6.57;;
74204;SDS011;62564;52.678;4.900;2023-06-22T04:38:23;8.55;;;6.75;;
74204;SDS011;62564;52.678;4.900;2023-06-22T04:40:49;9.10;;;6.75;;
74204;SDS011;62564;52.678;4.900;2023-06-22T04:43:15;8.27;;;6.00;;
74204;SDS011;62564;52.678;4.900;2023-06-22T04:45:40;9.13;;;6.38;;
74204;SDS011;62564;52.678;4.900;2023-06-22T04:48:06;10.00;;;6.22;;
74204;SDS011;62564;52.678;4.900;2023-06-22T04:50:31;8.85;;;6.00;;
74204;SDS011;62564;52.678;4.900;2023-06-22T04:52:57;9.40;;;6.43;;
74204;SDS011;62564;52.678;4.900;2023-06-22T04:55:23;7.93;;;6.25;;
74204;SDS011;62564;52.678;4.900;2023-06-22T04:57:50;7.75;;;5.55;;
74204;SDS011;62564;52.678;4.900;2023-06-22T05:00:17;8.70;;;5.75;;
74204;SDS011;62564;52.678;4.900;2023-06-22T05:02:44;9.30;;;6.28;;
74204;SDS011;62564;52.678;4.900;2023-06-22T05:05:10;8.43;;;5.93;;
74204;SDS011;62564;52.678;4.900;2023-06-22T05:07:39;7.60;;;5.53;;
74204;SDS011;62564;52.678;4.900;2023-06-22T05:10:08;7.55;;;5.22;;
74204;SDS011;62564;52.678;4.900;2023-06-22T05:12:34;7.28;;;5.07;;
74204;SDS011;62564;52.678;4.900;2023-06-22T05:15:00;7.90;;;5.83;;
74204;SDS011;62564;52.678;4.900;2023-06-22T05:17:26;7.00;;;4.88;;
74204;SDS011;62564;52.678;4.900;2023-06-22T05:19:51;7.53;;;5.10;;
74204;SDS011;62564;52.678;4.900;2023-06-22T05:22:17;8.15;;;5.70;;
74204;SDS011;62564;52.678;4.900;2023-06-22T05:24:42;8.57;;;5.65;;
74204;SDS011;62564;52.678;4.900;2023-06-22T05:27:08;7.15;;;5.50;;
74204;SDS011;62564;52.678;4.900;2023-06-22T05:29:34;6.93;;;5.15;;
74204;SDS011;62564;52.678;4.900;2023-06-22T05:32:00;6.95;;;4.90;;
74204;SDS011;62564;52.678;4.900;2023-06-22T05:34:25;6.53;;;4.50;;
74204;SDS011;62564;52.678;4.900;2023-06-22T05:36:51;8.00;;;4.30;;
74204;SDS011;62564;52.678;4.900;2023-06-22T05:39:16;7.13;;;4.50;;
74204;SDS011;62564;52.678;4.900;2023-06-22T05:41:42;8.13;;;5.72;;
74204;SDS011;62564;52.678;4.900;2023-06-22T05:44:10;5.32;;;4.07;;
74204;SDS011;62564;52.678;4.900;2023-06-22T05:46:35;4.78;;;3.63;;
74204;SDS011;62564;52.678;4.900;2023-06-22T05:49:01;4.78;;;4.10;;
74204;SDS011;62564;52.678;4.900;2023-06-22T05:51:26;5.10;;;3.57;;
74204;SDS011;62564;52.678;4.900;2023-06-22T05:53:52;3.60;;;2.63;;
74204;SDS011;62564;52.678;4.900;2023-06-22T05:56:17;4.30;;;2.77;;
74204;SDS011;62564;52.678;4.900;2023-06-22T05:58:42;4.90;;;3.10;;
74204;SDS011;62564;52.678;4.900;2023-06-22T06:01:08;10.48;;;5.50;;
74204;SDS011;62564;52.678;4.900;2023-06-22T06:03:33;11.47;;;5.50;;
74204;SDS011;62564;52.678;4.900;2023-06-22T06:05:58;9.13;;;4.17;;
74204;SDS011;62564;52.678;4.900;2023-06-22T06:08:24;6.68;;;3.95;;
74204;SDS011;62564;52.678;4.900;2023-06-22T06:10:50;7.20;;;3.90;;
74204;SDS011;62564;52.678;4.900;2023-06-22T06:13:17;6.22;;;3.25;;
74204;SDS011;62564;52.678;4.900;2023-06-22T06:15:43;5.38;;;3.00;;
74204;SDS011;62564;52.678;4.900;2023-06-22T06:18:08;6.13;;;3.67;;
74204;SDS011;62564;52.678;4.900;2023-06-22T06:20:34;7.75;;;4.55;;
74204;SDS011;62564;52.678;4.900;2023-06-22T06:22:59;7.30;;;3.17;;
74204;SDS011;62564;52.678;4.900;2023-06-22T06:25:24;7.38;;;3.95;;
74204;SDS011;62564;52.678;4.900;2023-06-22T06:27:51;12.43;;;5.70;;
74204;SDS011;62564;52.678;4.900;2023-06-22T06:30:17;7.43;;;4.63;;
74204;SDS011;62564;52.678;4.900;2023-06-22T06:32:44;9.85;;;4.75;;
74204;SDS011;62564;52.678;4.900;2023-06-22T06:35:10;9.40;;;4.97;;
74204;SDS011;62564;52.678;4.900;2023-06-22T06:37:38;9.32;;;4.65;;
74204;SDS011;62564;52.678;4.900;2023-06-22T06:40:05;7.38;;;4.45;;
74204;SDS011;62564;52.678;4.900;2023-06-22T06:42:36;7.38;;;3.95;;
74204;SDS011;62564;52.678;4.900;2023-06-22T06:45:03;8.63;;;4.32;;
74204;SDS011;62564;52.678;4.900;2023-06-22T06:47:29;6.75;;;4.22;;
74204;SDS011;62564;52.678;4.900;2023-06-22T06:49:55;7.67;;;4.00;;
74204;SDS011;62564;52.678;4.900;2023-06-22T06:52:20;6.57;;;4.00;;
74204;SDS011;62564;52.678;4.900;2023-06-22T06:54:45;6.83;;;4.00;;
74204;SDS011;62564;52.678;4.900;2023-06-22T06:57:11;7.57;;;4.10;;
74204;SDS011;62564;52.678;4.900;2023-06-22T06:59:38;5.40;;;4.07;;
74204;SDS011;62564;52.678;4.900;2023-06-22T07:02:04;5.70;;;3.42;;
74204;SDS011;62564;52.678;4.900;2023-06-22T07:04:29;5.32;;;3.58;;
74204;SDS011;62564;52.678;4.900;2023-06-22T07:06:55;5.27;;;4.30;;
74204;SDS011;62564;52.678;4.900;2023-06-22T07:09:20;6.57;;;4.25;;
74204;SDS011;62564;52.678;4.900;2023-06-22T07:11:46;6.40;;;3.20;;
74204;SDS011;62564;52.678;4.900;2023-06-22T07:14:12;5.28;;;3.50;;
74204;SDS011;62564;52.678;4.900;2023-06-22T07:16:37;5.13;;;2.97;;
74204;SDS011;62564;52.678;4.900;2023-06-22T07:19:02;5.30;;;3.40;;
74204;SDS011;62564;52.678;4.900;2023-06-22T07:21:28;3.97;;;2.90;;
74204;SDS011;62564;52.678;4.900;2023-06-22T07:23:53;5.30;;;3.42;;
74204;SDS011;62564;52.678;4.900;2023-06-22T07:26:19;4.95;;;3.67;;
74204;SDS011;62564;52.678;4.900;2023-06-22T07:28:45;5.13;;;2.97;;
74204;SDS011;62564;52.678;4.900;2023-06-22T07:31:10;4.70;;;3.70;;
74204;SDS011;62564;52.678;4.900;2023-06-22T07:33:35;4.40;;;2.45;;
74204;SDS011;62564;52.678;4.900;2023-06-22T07:36:01;3.93;;;3.17;;
74204;SDS011;62564;52.678;4.900;2023-06-22T07:38:28;3.35;;;2.75;;
74204;SDS011;62564;52.678;4.900;2023-06-22T07:40:54;4.10;;;2.93;;
74204;SDS011;62564;52.678;4.900;2023-06-22T07:43:19;4.30;;;3.22;;
74204;SDS011;62564;52.678;4.900;2023-06-22T07:45:48;3.63;;;2.33;;
74204;SDS011;62564;52.678;4.900;2023-06-22T07:48:17;4.85;;;2.83;;
74204;SDS011;62564;52.678;4.900;2023-06-22T07:50:44;3.47;;;2.65;;
74204;SDS011;62564;52.678;4.900;2023-06-22T07:53:10;3.80;;;2.60;;
74204;SDS011;62564;52.678;4.900;2023-06-22T07:55:35;3.93;;;2.40;;
74204;SDS011;62564;52.678;4.900;2023-06-22T07:58:00;5.23;;;2.37;;
74204;SDS011;62564;52.678;4.900;2023-06-22T08:00:25;3.27;;;1.97;;
74204;SDS011;62564;52.678;4.900;2023-06-22T08:02:51;3.47;;;2.05;;
74204;SDS011;62564;52.678;4.900;2023-06-22T08:05:16;4.13;;;2.38;;
74204;SDS011;62564;52.678;4.900;2023-06-22T08:07:42;3.33;;;2.00;;
74204;SDS011;62564;52.678;4.900;2023-06-22T08:10:12;3.22;;;1.98;;
74204;SDS011;62564;52.678;4.900;2023-06-22T08:12:41;3.72;;;2.22;;
74204;SDS011;62564;52.678;4.900;2023-06-22T08:15:07;2.95;;;2.13;;
74204;SDS011;62564;52.678;4.900;2023-06-22T08:17:33;3.30;;;1.50;;
74204;SDS011;62564;52.678;4.900;2023-06-22T08:19:58;3.17;;;2.15;;
74204;SDS011;62564;52.678;4.900;2023-06-22T08:22:25;3.40;;;2.22;;
74204;SDS011;62564;52.678;4.900;2023-06-22T08:24:50;3.33;;;2.05;;
74204;SDS011;62564;52.678;4.900;2023-06-22T08:27:15;3.17;;;1.80;;
74204;SDS011;62564;52.678;4.900;2023-06-22T08:29:43;3.13;;;1.50;;
74204;SDS011;62564;52.678;4.900;2023-06-22T08:32:10;2.88;;;1.73;;
74204;SDS011;62564;52.678;4.900;2023-06-22T08:34:36;2.65;;;1.40;;
74204;SDS011;62564;52.678;4.900;2023-06-22T08:37:01;3.63;;;1.95;;
74204;SDS011;62564;52.678;4.900;2023-06-22T08:39:31;2.50;;;1.58;;
74204;SDS011;62564;52.678;4.900;2023-06-22T08:41:56;2.30;;;1.52;;
74204;SDS011;62564;52.678;4.900;2023-06-22T08:44:22;3.57;;;1.83;;
74204;SDS011;62564;52.678;4.900;2023-06-22T08:46:47;2.77;;;1.73;;
74204;SDS011;62564;52.678;4.900;2023-06-22T08:49:12;3.22;;;1.63;;
74204;SDS011;62564;52.678;4.900;2023-06-22T08:51:38;3.17;;;1.63;;
74204;SDS011;62564;52.678;4.900;2023-06-22T08:54:03;3.30;;;1.65;;
74204;SDS011;62564;52.678;4.900;2023-06-22T08:56:28;2.97;;;1.70;;
74204;SDS011;62564;52.678;4.900;2023-06-22T08:58:54;2.22;;;1.60;;
74204;SDS011;62564;52.678;4.900;2023-06-22T09:01:19;3.90;;;1.95;;
74204;SDS011;62564;52.678;4.900;2023-06-22T09:03:44;2.40;;;1.73;;
74204;SDS011;62564;52.678;4.900;2023-06-22T09:06:18;2.65;;;1.52;;
74204;SDS011;62564;52.678;4.900;2023-06-22T09:08:44;2.72;;;1.58;;
74204;SDS011;62564;52.678;4.900;2023-06-22T09:11:09;2.10;;;1.47;;
74204;SDS011;62564;52.678;4.900;2023-06-22T09:13:34;2.97;;;1.53;;
74204;SDS011;62564;52.678;4.900;2023-06-22T09:16:00;2.03;;;1.33;;
74204;SDS011;62564;52.678;4.900;2023-06-22T09:18:25;2.27;;;1.40;;
74204;SDS011;62564;52.678;4.900;2023-06-22T09:20:50;1.98;;;1.05;;
74204;SDS011;62564;52.678;4.900;2023-06-22T09:23:16;2.73;;;1.60;;
74204;SDS011;62564;52.678;4.900;2023-06-22T09:25:41;3.73;;;1.93;;
74204;SDS011;62564;52.678;4.900;2023-06-22T09:28:07;2.15;;;1.27;;
74204;SDS011;62564;52.678;4.900;2023-06-22T09:30:32;2.23;;;1.13;;
74204;SDS011;62564;52.678;4.900;2023-06-22T09:32:57;2.30;;;1.48;;
74204;SDS011;62564;52.678;4.900;2023-06-22T09:35:22;2.50;;;1.10;;
74204;SDS011;62564;52.678;4.900;2023-06-22T09:37:48;2.03;;;1.20;;
74204;SDS011;62564;52.678;4.900;2023-06-22T09:40:13;1.98;;;1.13;;
74204;SDS011;62564;52.678;4.900;2023-06-22T09:42:41;2.30;;;1.17;;
74204;SDS011;62564;52.678;4.900;2023-06-22T09:45:07;2.20;;;0.80;;
74204;SDS011;62564;52.678;4.900;2023-06-22T09:47:32;2.78;;;1.13;;
74204;SDS011;62564;52.678;4.900;2023-06-22T09:49:58;3.22;;;1.30;;
74204;SDS011;62564;52.678;4.900;2023-06-22T09:54:50;2.70;;;1.23;;
74204;SDS011;62564;52.678;4.900;2023-06-22T09:57:15;2.77;;;1.43;;
74204;SDS011;62564;52.678;4.900;2023-06-22T09:59:40;4.63;;;1.73;;
74204;SDS011;62564;52.678;4.900;2023-06-22T10:02:06;2.47;;;1.15;;
74204;SDS011;62564;52.678;4.900;2023-06-22T10:04:32;2.95;;;2.08;;
74204;SDS011;62564;52.678;4.900;2023-06-22T10:06:57;2.08;;;1.60;;
74204;SDS011;62564;52.678;4.900;2023-06-22T10:09:22;2.70;;;1.80;;
74204;SDS011;62564;52.678;4.900;2023-06-22T10:11:48;3.27;;;1.90;;
74204;SDS011;62564;52.678;4.900;2023-06-22T10:14:13;2.75;;;1.52;;
74204;SDS011;62564;52.678;4.900;2023-06-22T10:16:38;2.72;;;1.33;;
74204;SDS011;62564;52.678;4.900;2023-06-22T10:19:06;2.10;;;1.50;;
74204;SDS011;62564;52.678;4.900;2023-06-22T10:21:31;2.42;;;1.75;;
74204;SDS011;62564;52.678;4.900;2023-06-22T10:23:57;2.75;;;1.60;;
74204;SDS011;62564;52.678;4.900;2023-06-22T10:26:24;2.28;;;1.48;;
74204;SDS011;62564;52.678;4.900;2023-06-22T10:28:49;2.20;;;1.35;;
74204;SDS011;62564;52.678;4.900;2023-06-22T10:31:15;2.30;;;1.35;;
74204;SDS011;62564;52.678;4.900;2023-06-22T10:33:41;3.10;;;2.03;;
74204;SDS011;62564;52.678;4.900;2023-06-22T10:36:08;3.35;;;2.10;;
74204;SDS011;62564;52.678;4.900;2023-06-22T10:38:34;2.40;;;1.75;;
74204;SDS011;62564;52.678;4.900;2023-06-22T10:40:59;3.05;;;2.05;;
74204;SDS011;62564;52.678;4.900;2023-06-22T10:43:25;2.60;;;1.67;;
74204;SDS011;62564;52.678;4.900;2023-06-22T10:45:50;2.40;;;1.50;;
74204;SDS011;62564;52.678;4.900;2023-06-22T10:48:15;2.50;;;1.67;;
74204;SDS011;62564;52.678;4.900;2023-06-22T10:50:41;3.50;;;2.17;;
74204;SDS011;62564;52.678;4.900;2023-06-22T10:53:06;3.00;;;1.60;;
74204;SDS011;62564;52.678;4.900;2023-06-22T10:55:31;2.97;;;1.67;;
74204;SDS011;62564;52.678;4.900;2023-06-22T10:57:57;2.60;;;2.03;;
74204;SDS011;62564;52.678;4.900;2023-06-22T11:00:22;2.40;;;1.73;;
74204;SDS011;62564;52.678;4.900;2023-06-22T11:02:47;2.40;;;1.52;;
74204;SDS011;62564;52.678;4.900;2023-06-22T11:05:13;2.90;;;2.27;;
74204;SDS011;62564;52.678;4.900;2023-06-22T11:07:41;3.03;;;1.92;;
74204;SDS011;62564;52.678;4.900;2023-06-22T11:10:07;2.97;;;2.05;;
74204;SDS011;62564;52.678;4.900;2023-06-22T11:12:33;2.63;;;2.05;;
74204;SDS011;62564;52.678;4.900;2023-06-22T11:14:58;2.95;;;2.50;;
74204;SDS011;62564;52.678;4.900;2023-06-22T11:17:24;3.42;;;2.28;;
74204;SDS011;62564;52.678;4.900;2023-06-22T11:19:50;2.95;;;2.30;;
74204;SDS011;62564;52.678;4.900;2023-06-22T11:22:15;2.88;;;2.58;;
74204;SDS011;62564;52.678;4.900;2023-06-22T11:24:41;3.40;;;2.47;;
74204;SDS011;62564;52.678;4.900;2023-06-22T11:27:06;2.95;;;2.22;;
74204;SDS011;62564;52.678;4.900;2023-06-22T11:29:32;2.70;;;1.92;;
74204;SDS011;62564;52.678;4.900;2023-06-22T11:31:57;2.87;;;2.53;;
74204;SDS011;62564;52.678;4.900;2023-06-22T11:34:22;3.60;;;2.73;;
74204;SDS011;62564;52.678;4.900;2023-06-22T11:36:47;4.20;;;3.10;;
74204;SDS011;62564;52.678;4.900;2023-06-22T11:39:13;3.35;;;2.88;;
74204;SDS011;62564;52.678;4.900;2023-06-22T11:41:39;3.72;;;2.60;;
74204;SDS011;62564;52.678;4.900;2023-06-22T11:44:05;3.10;;;2.22;;
74204;SDS011;62564;52.678;4.900;2023-06-22T11:46:30;3.28;;;2.40;;
74204;SDS011;62564;52.678;4.900;2023-06-22T11:51:22;4.30;;;3.43;;
74204;SDS011;62564;52.678;4.900;2023-06-22T11:53:47;2.93;;;2.30;;
74204;SDS011;62564;52.678;4.900;2023-06-22T11:56:13;4.15;;;2.85;;
74204;SDS011;62564;52.678;4.900;2023-06-22T11:58:38;3.38;;;2.72;;
74204;SDS011;62564;52.678;4.900;2023-06-22T12:01:03;3.30;;;2.47;;
74204;SDS011;62564;52.678;4.900;2023-06-22T12:03:30;3.80;;;2.85;;
74204;SDS011;62564;52.678;4.900;2023-06-22T12:05:55;3.45;;;2.90;;
74204;SDS011;62564;52.678;4.900;2023-06-22T12:08:20;3.58;;;2.78;;
74204;SDS011;62564;52.678;4.900;2023-06-22T12:10:46;3.83;;;3.10;;
74204;SDS011;62564;52.678;4.900;2023-06-22T12:13:11;3.42;;;3.08;;
74204;SDS011;62564;52.678;4.900;2023-06-22T12:15:37;3.70;;;2.67;;
74204;SDS011;62564;52.678;4.900;2023-06-22T12:18:02;3.80;;;3.15;;
74204;SDS011;62564;52.678;4.900;2023-06-22T12:20:27;3.33;;;2.58;;
74204;SDS011;62564;52.678;4.900;2023-06-22T12:22:53;3.60;;;2.55;;
74204;SDS011;62564;52.678;4.900;2023-06-22T12:25:21;4.07;;;3.28;;
74204;SDS011;62564;52.678;4.900;2023-06-22T12:27:47;4.65;;;2.92;;
74204;SDS011;62564;52.678;4.900;2023-06-22T12:30:12;3.27;;;2.60;;
74204;SDS011;62564;52.678;4.900;2023-06-22T12:32:37;3.25;;;2.67;;
74204;SDS011;62564;52.678;4.900;2023-06-22T12:35:03;3.03;;;2.73;;
74204;SDS011;62564;52.678;4.900;2023-06-22T12:37:29;4.13;;;3.08;;
74204;SDS011;62564;52.678;4.900;2023-06-22T12:39:56;3.35;;;2.65;;
74204;SDS011;62564;52.678;4.900;2023-06-22T12:42:22;3.70;;;2.42;;
74204;SDS011;62564;52.678;4.900;2023-06-22T12:44:47;3.15;;;2.20;;
74204;SDS011;62564;52.678;4.900;2023-06-22T12:47:12;3.83;;;2.53;;
74204;SDS011;62564;52.678;4.900;2023-06-22T12:49:38;5.03;;;2.92;;
74204;SDS011;62564;52.678;4.900;2023-06-22T12:52:08;3.33;;;2.42;;
74204;SDS011;62564;52.678;4.900;2023-06-22T12:54:34;3.63;;;2.88;;
74204;SDS011;62564;52.678;4.900;2023-06-22T12:56:59;3.80;;;3.20;;
74204;SDS011;62564;52.678;4.900;2023-06-22T12:59:25;4.57;;;2.90;;
74204;SDS011;62564;52.678;4.900;2023-06-22T13:01:50;4.83;;;4.23;;
74204;SDS011;62564;52.678;4.900;2023-06-22T13:04:15;4.43;;;3.70;;
74204;SDS011;62564;52.678;4.900;2023-06-22T13:06:47;4.23;;;3.40;;
74204;SDS011;62564;52.678;4.900;2023-06-22T13:09:13;3.75;;;3.35;;
74204;SDS011;62564;52.678;4.900;2023-06-22T13:11:40;4.63;;;4.15;;
74204;SDS011;62564;52.678;4.900;2023-06-22T13:14:05;4.50;;;3.80;;
74204;SDS011;62564;52.678;4.900;2023-06-22T13:16:31;5.32;;;3.63;;
74204;SDS011;62564;52.678;4.900;2023-06-22T13:18:56;4.25;;;3.42;;
74204;SDS011;62564;52.678;4.900;2023-06-22T13:21:21;4.30;;;3.43;;
74204;SDS011;62564;52.678;4.900;2023-06-22T13:23:47;4.83;;;4.33;;
74204;SDS011;62564;52.678;4.900;2023-06-22T13:26:12;6.47;;;3.40;;
74204;SDS011;62564;52.678;4.900;2023-06-22T13:28:38;4.30;;;3.55;;
74204;SDS011;62564;52.678;4.900;2023-06-22T13:31:03;5.23;;;4.33;;
74204;SDS011;62564;52.678;4.900;2023-06-22T13:33:28;5.00;;;4.10;;
74204;SDS011;62564;52.678;4.900;2023-06-22T13:35:54;4.47;;;3.75;;
74204;SDS011;62564;52.678;4.900;2023-06-22T13:38:19;4.72;;;4.10;;
74204;SDS011;62564;52.678;4.900;2023-06-22T13:40:44;5.07;;;3.97;;
74204;SDS011;62564;52.678;4.900;2023-06-22T13:43:10;4.10;;;3.33;;
74204;SDS011;62564;52.678;4.900;2023-06-22T13:45:38;4.10;;;3.58;;
74204;SDS011;62564;52.678;4.900;2023-06-22T13:48:03;4.78;;;3.63;;
74204;SDS011;62564;52.678;4.900;2023-06-22T13:50:29;5.95;;;4.25;;
74204;SDS011;62564;52.678;4.900;2023-06-22T13:52:54;5.82;;;5.05;;
74204;SDS011;62564;52.678;4.900;2023-06-22T13:55:20;6.57;;;5.20;;
74204;SDS011;62564;52.678;4.900;2023-06-22T13:57:46;6.15;;;5.43;;
74204;SDS011;62564;52.678;4.900;2023-06-22T14:00:11;5.85;;;5.25;;
74204;SDS011;62564;52.678;4.900;2023-06-22T14:02:37;6.35;;;5.32;;
74204;SDS011;62564;52.678;4.900;2023-06-22T14:05:03;5.55;;;4.63;;
74204;SDS011;62564;52.678;4.900;2023-06-22T14:07:28;5.88;;;4.95;;
74204;SDS011;62564;52.678;4.900;2023-06-22T14:09:54;5.97;;;4.80;;
74204;SDS011;62564;52.678;4.900;2023-06-22T14:12:19;5.70;;;4.68;;
74204;SDS011;62564;52.678;4.900;2023-06-22T14:14:44;5.27;;;4.20;;
74204;SDS011;62564;52.678;4.900;2023-06-22T14:17:10;6.33;;;5.73;;
74204;SDS011;62564;52.678;4.900;2023-06-22T14:19:35;4.97;;;4.38;;
74204;SDS011;62564;52.678;4.900;2023-06-22T14:22:00;5.38;;;4.70;;
74204;SDS011;62564;52.678;4.900;2023-06-22T14:24:26;6.45;;;4.97;;
74204;SDS011;62564;52.678;4.900;2023-06-22T14:26:51;4.85;;;3.78;;
74204;SDS011;62564;52.678;4.900;2023-06-22T14:29:17;5.40;;;4.72;;
74204;SDS011;62564;52.678;4.900;2023-06-22T14:31:44;6.32;;;4.47;;
74204;SDS011;62564;52.678;4.900;2023-06-22T14:34:10;4.97;;;4.43;;
74204;SDS011;62564;52.678;4.900;2023-06-22T14:36:35;4.90;;;3.50;;
74204;SDS011;62564;52.678;4.900;2023-06-22T14:39:00;6.10;;;4.83;;
74204;SDS011;62564;52.678;4.900;2023-06-22T14:41:26;4.90;;;4.00;;
74204;SDS011;62564;52.678;4.900;2023-06-22T14:43:51;5.33;;;3.70;;
74204;SDS011;62564;52.678;4.900;2023-06-22T14:46:17;4.38;;;3.92;;
74204;SDS011;62564;52.678;4.900;2023-06-22T14:51:09;5.80;;;4.23;;
74204;SDS011;62564;52.678;4.900;2023-06-22T14:53:35;4.85;;;4.35;;